sensor_id;sensor_type;location;lat;lon;timestamp;P1;durP1;ratioP1;P2;durP2;ratioP2
55655;SDS011;41530;52.382;5.270;2024-02-21T00:00:12;13.95;;;2.38;;
55655;SDS011;41530;52.382;5.270;2024-02-21T00:02:39;13.13;;;2.97;;
55655;SDS011;41530;52.382;5.270;2024-02-21T00:05:05;9.77;;;2.35;;
55655;SDS011;41530;52.382;5.270;2024-02-21T00:07:33;8.93;;;2.00;;
55655;SDS011;41530;52.382;5.270;2024-02-21T00:09:59;13.18;;;2.45;;
55655;SDS011;41530;52.382;5.270;2024-02-21T00:12:26;14.63;;;2.33;;
55655;SDS011;41530;52.382;5.270;2024-02-21T00:14:53;10.85;;;2.35;;
55655;SDS011;41530;52.382;5.270;2024-02-21T00:17:20;15.65;;;2.30;;
55655;SDS011;41530;52.382;5.270;2024-02-21T00:19:46;9.93;;;2.10;;
55655;SDS011;41530;52.382;5.270;2024-02-21T00:22:13;9.55;;;2.00;;
55655;SDS011;41530;52.382;5.270;2024-02-21T00:24:40;14.90;;;2.25;;
55655;SDS011;41530;52.382;5.270;2024-02-21T00:27:06;12.68;;;2.33;;
55655;SDS011;41530;52.382;5.270;2024-02-21T00:29:33;12.32;;;2.28;;
55655;SDS011;41530;52.382;5.270;2024-02-21T00:32:00;14.93;;;2.45;;
55655;SDS011;41530;52.382;5.270;2024-02-21T00:34:30;12.52;;;2.00;;
55655;SDS011;41530;52.382;5.270;2024-02-21T00:36:57;10.00;;;2.08;;
55655;SDS011;41530;52.382;5.270;2024-02-21T00:39:24;12.88;;;2.10;;
55655;SDS011;41530;52.382;5.270;2024-02-21T00:41:50;14.48;;;2.17;;
55655;SDS011;41530;52.382;5.270;2024-02-21T00:44:17;11.48;;;2.28;;
55655;SDS011;41530;52.382;5.270;2024-02-21T00:46:44;15.65;;;2.25;;
55655;SDS011;41530;52.382;5.270;2024-02-21T00:49:10;11.45;;;2.25;;
55655;SDS011;41530;52.382;5.270;2024-02-21T00:51:37;13.63;;;1.90;;
55655;SDS011;41530;52.382;5.270;2024-02-21T00:54:04;11.02;;;2.42;;
55655;SDS011;41530;52.382;5.270;2024-02-21T00:56:30;10.85;;;2.13;;
55655;SDS011;41530;52.382;5.270;2024-02-21T00:58:57;15.20;;;2.65;;
55655;SDS011;41530;52.382;5.270;2024-02-21T01:01:24;11.68;;;2.38;;
55655;SDS011;41530;52.382;5.270;2024-02-21T01:03:51;11.18;;;2.10;;
55655;SDS011;41530;52.382;5.270;2024-02-21T01:06:21;11.27;;;2.55;;
55655;SDS011;41530;52.382;5.270;2024-02-21T01:08:48;13.95;;;2.40;;
55655;SDS011;41530;52.382;5.270;2024-02-21T01:11:15;13.73;;;2.70;;
55655;SDS011;41530;52.382;5.270;2024-02-21T01:13:43;18.10;;;3.13;;
55655;SDS011;41530;52.382;5.270;2024-02-21T01:16:10;13.68;;;2.28;;
55655;SDS011;41530;52.382;5.270;2024-02-21T01:18:37;13.48;;;2.25;;
55655;SDS011;41530;52.382;5.270;2024-02-21T01:21:06;14.55;;;2.63;;
55655;SDS011;41530;52.382;5.270;2024-02-21T01:23:36;15.50;;;2.53;;
55655;SDS011;41530;52.382;5.270;2024-02-21T01:26:03;13.85;;;2.47;;
55655;SDS011;41530;52.382;5.270;2024-02-21T01:28:30;12.00;;;2.50;;
55655;SDS011;41530;52.382;5.270;2024-02-21T01:30:57;10.73;;;2.30;;
55655;SDS011;41530;52.382;5.270;2024-02-21T01:33:24;16.92;;;2.92;;
55655;SDS011;41530;52.382;5.270;2024-02-21T01:35:50;8.98;;;1.60;;
55655;SDS011;41530;52.382;5.270;2024-02-21T01:38:17;14.02;;;2.72;;
55655;SDS011;41530;52.382;5.270;2024-02-21T01:40:44;12.15;;;2.50;;
55655;SDS011;41530;52.382;5.270;2024-02-21T01:43:16;14.23;;;2.72;;
55655;SDS011;41530;52.382;5.270;2024-02-21T01:45:46;16.58;;;2.60;;
55655;SDS011;41530;52.382;5.270;2024-02-21T01:48:19;12.18;;;2.38;;
55655;SDS011;41530;52.382;5.270;2024-02-21T01:50:51;12.57;;;2.60;;
55655;SDS011;41530;52.382;5.270;2024-02-21T01:53:25;10.20;;;2.50;;
55655;SDS011;41530;52.382;5.270;2024-02-21T01:55:56;10.35;;;2.00;;
55655;SDS011;41530;52.382;5.270;2024-02-21T01:58:23;14.63;;;2.72;;
55655;SDS011;41530;52.382;5.270;2024-02-21T02:00:50;14.00;;;2.75;;
55655;SDS011;41530;52.382;5.270;2024-02-21T02:03:17;13.95;;;2.75;;
55655;SDS011;41530;52.382;5.270;2024-02-21T02:08:13;13.48;;;2.60;;
55655;SDS011;41530;52.382;5.270;2024-02-21T02:10:41;11.90;;;2.20;;
55655;SDS011;41530;52.382;5.270;2024-02-21T02:13:08;19.65;;;3.50;;
55655;SDS011;41530;52.382;5.270;2024-02-21T02:15:53;17.02;;;2.67;;
55655;SDS011;41530;52.382;5.270;2024-02-21T02:18:19;30.40;;;2.13;;
55655;SDS011;41530;52.382;5.270;2024-02-21T02:20:47;16.15;;;2.78;;
55655;SDS011;41530;52.382;5.270;2024-02-21T02:23:21;10.88;;;2.47;;
55655;SDS011;41530;52.382;5.270;2024-02-21T02:25:52;10.98;;;2.35;;
55655;SDS011;41530;52.382;5.270;2024-02-21T02:28:19;19.33;;;2.90;;
55655;SDS011;41530;52.382;5.270;2024-02-21T02:30:46;9.13;;;2.40;;
55655;SDS011;41530;52.382;5.270;2024-02-21T02:33:13;18.02;;;2.65;;
55655;SDS011;41530;52.382;5.270;2024-02-21T02:35:40;19.33;;;2.92;;
55655;SDS011;41530;52.382;5.270;2024-02-21T02:38:07;16.50;;;3.03;;
55655;SDS011;41530;52.382;5.270;2024-02-21T02:40:33;17.23;;;2.60;;
55655;SDS011;41530;52.382;5.270;2024-02-21T02:43:01;13.65;;;2.55;;
55655;SDS011;41530;52.382;5.270;2024-02-21T02:45:28;14.27;;;2.47;;
55655;SDS011;41530;52.382;5.270;2024-02-21T02:47:55;14.00;;;1.92;;
55655;SDS011;41530;52.382;5.270;2024-02-21T02:50:23;16.10;;;3.28;;
55655;SDS011;41530;52.382;5.270;2024-02-21T02:52:50;17.27;;;2.83;;
55655;SDS011;41530;52.382;5.270;2024-02-21T02:55:17;17.80;;;3.03;;
55655;SDS011;41530;52.382;5.270;2024-02-21T02:57:44;14.68;;;2.95;;
55655;SDS011;41530;52.382;5.270;2024-02-21T03:00:12;17.80;;;3.05;;
55655;SDS011;41530;52.382;5.270;2024-02-21T03:02:40;11.88;;;2.53;;
55655;SDS011;41530;52.382;5.270;2024-02-21T03:05:14;18.30;;;3.10;;
55655;SDS011;41530;52.382;5.270;2024-02-21T03:07:43;15.25;;;2.85;;
55655;SDS011;41530;52.382;5.270;2024-02-21T03:10:10;11.00;;;2.30;;
55655;SDS011;41530;52.382;5.270;2024-02-21T03:12:37;15.25;;;2.45;;
55655;SDS011;41530;52.382;5.270;2024-02-21T03:15:04;15.27;;;2.65;;
55655;SDS011;41530;52.382;5.270;2024-02-21T03:17:32;17.20;;;2.70;;
55655;SDS011;41530;52.382;5.270;2024-02-21T03:20:04;18.30;;;2.72;;
55655;SDS011;41530;52.382;5.270;2024-02-21T03:22:32;17.17;;;3.22;;
55655;SDS011;41530;52.382;5.270;2024-02-21T03:24:59;17.55;;;3.03;;
55655;SDS011;41530;52.382;5.270;2024-02-21T03:27:26;20.13;;;2.60;;
55655;SDS011;41530;52.382;5.270;2024-02-21T03:29:53;10.30;;;2.20;;
55655;SDS011;41530;52.382;5.270;2024-02-21T03:32:19;14.32;;;2.72;;
55655;SDS011;41530;52.382;5.270;2024-02-21T03:34:46;13.77;;;2.80;;
55655;SDS011;41530;52.382;5.270;2024-02-21T03:37:13;16.83;;;3.22;;
55655;SDS011;41530;52.382;5.270;2024-02-21T03:39:40;15.77;;;2.63;;
55655;SDS011;41530;52.382;5.270;2024-02-21T03:42:07;14.05;;;2.65;;
55655;SDS011;41530;52.382;5.270;2024-02-21T03:44:34;9.27;;;2.22;;
55655;SDS011;41530;52.382;5.270;2024-02-21T03:47:01;12.13;;;2.40;;
55655;SDS011;41530;52.382;5.270;2024-02-21T03:49:27;14.45;;;2.88;;
55655;SDS011;41530;52.382;5.270;2024-02-21T03:51:55;17.30;;;3.10;;
55655;SDS011;41530;52.382;5.270;2024-02-21T03:54:22;15.95;;;2.75;;
55655;SDS011;41530;52.382;5.270;2024-02-21T03:56:49;14.35;;;2.53;;
55655;SDS011;41530;52.382;5.270;2024-02-21T03:59:15;12.82;;;2.33;;
55655;SDS011;41530;52.382;5.270;2024-02-21T04:01:42;11.88;;;2.25;;
55655;SDS011;41530;52.382;5.270;2024-02-21T04:04:12;15.88;;;2.47;;
55655;SDS011;41530;52.382;5.270;2024-02-21T04:06:48;14.55;;;2.47;;
55655;SDS011;41530;52.382;5.270;2024-02-21T04:09:15;15.02;;;2.60;;
55655;SDS011;41530;52.382;5.270;2024-02-21T04:11:42;11.75;;;2.35;;
55655;SDS011;41530;52.382;5.270;2024-02-21T04:14:09;12.85;;;2.55;;
55655;SDS011;41530;52.382;5.270;2024-02-21T04:16:38;9.57;;;2.47;;
55655;SDS011;41530;52.382;5.270;2024-02-21T04:19:06;13.57;;;2.70;;
55655;SDS011;41530;52.382;5.270;2024-02-21T04:21:32;13.82;;;2.78;;
55655;SDS011;41530;52.382;5.270;2024-02-21T04:23:59;14.93;;;3.67;;
55655;SDS011;41530;52.382;5.270;2024-02-21T04:26:26;13.68;;;2.63;;
55655;SDS011;41530;52.382;5.270;2024-02-21T04:28:52;19.13;;;2.58;;
55655;SDS011;41530;52.382;5.270;2024-02-21T04:31:19;12.85;;;2.53;;
55655;SDS011;41530;52.382;5.270;2024-02-21T04:33:46;12.15;;;2.33;;
55655;SDS011;41530;52.382;5.270;2024-02-21T04:36:13;16.52;;;2.85;;
55655;SDS011;41530;52.382;5.270;2024-02-21T04:38:39;14.35;;;2.40;;
55655;SDS011;41530;52.382;5.270;2024-02-21T04:41:07;13.15;;;2.30;;
55655;SDS011;41530;52.382;5.270;2024-02-21T04:43:34;10.55;;;2.33;;
55655;SDS011;41530;52.382;5.270;2024-02-21T04:46:01;14.90;;;2.50;;
55655;SDS011;41530;52.382;5.270;2024-02-21T04:48:28;13.23;;;2.47;;
55655;SDS011;41530;52.382;5.270;2024-02-21T04:50:54;15.23;;;2.80;;
55655;SDS011;41530;52.382;5.270;2024-02-21T04:53:21;13.95;;;2.72;;
55655;SDS011;41530;52.382;5.270;2024-02-21T04:55:48;11.52;;;2.55;;
55655;SDS011;41530;52.382;5.270;2024-02-21T04:58:14;18.90;;;3.17;;
55655;SDS011;41530;52.382;5.270;2024-02-21T05:00:41;9.60;;;2.20;;
55655;SDS011;41530;52.382;5.270;2024-02-21T05:03:08;12.50;;;2.42;;
55655;SDS011;41530;52.382;5.270;2024-02-21T05:05:35;13.68;;;2.33;;
55655;SDS011;41530;52.382;5.270;2024-02-21T05:08:02;8.85;;;1.92;;
55655;SDS011;41530;52.382;5.270;2024-02-21T05:10:29;16.92;;;3.45;;
55655;SDS011;41530;52.382;5.270;2024-02-21T05:12:56;12.05;;;2.40;;
55655;SDS011;41530;52.382;5.270;2024-02-21T05:15:23;11.00;;;2.83;;
55655;SDS011;41530;52.382;5.270;2024-02-21T05:17:50;12.95;;;2.30;;
55655;SDS011;41530;52.382;5.270;2024-02-21T05:20:17;13.88;;;2.45;;
55655;SDS011;41530;52.382;5.270;2024-02-21T05:22:43;12.32;;;2.67;;
55655;SDS011;41530;52.382;5.270;2024-02-21T05:25:10;17.67;;;2.55;;
55655;SDS011;41530;52.382;5.270;2024-02-21T05:27:37;12.20;;;2.58;;
55655;SDS011;41530;52.382;5.270;2024-02-21T05:30:05;19.08;;;2.72;;
55655;SDS011;41530;52.382;5.270;2024-02-21T05:32:33;12.45;;;2.45;;
55655;SDS011;41530;52.382;5.270;2024-02-21T05:34:59;9.63;;;2.13;;
55655;SDS011;41530;52.382;5.270;2024-02-21T05:37:26;10.57;;;3.17;;
55655;SDS011;41530;52.382;5.270;2024-02-21T05:39:53;16.50;;;2.33;;
55655;SDS011;41530;52.382;5.270;2024-02-21T05:42:20;10.90;;;2.38;;
55655;SDS011;41530;52.382;5.270;2024-02-21T05:44:46;9.15;;;2.58;;
55655;SDS011;41530;52.382;5.270;2024-02-21T05:47:13;6.47;;;2.30;;
55655;SDS011;41530;52.382;5.270;2024-02-21T05:49:41;8.93;;;2.47;;
55655;SDS011;41530;52.382;5.270;2024-02-21T05:52:09;8.65;;;1.95;;
55655;SDS011;41530;52.382;5.270;2024-02-21T05:54:37;7.65;;;1.73;;
55655;SDS011;41530;52.382;5.270;2024-02-21T05:57:07;6.93;;;2.10;;
55655;SDS011;41530;52.382;5.270;2024-02-21T05:59:34;7.63;;;1.77;;
55655;SDS011;41530;52.382;5.270;2024-02-21T06:02:02;7.40;;;1.98;;
55655;SDS011;41530;52.382;5.270;2024-02-21T06:04:30;4.03;;;1.42;;
55655;SDS011;41530;52.382;5.270;2024-02-21T06:06:57;5.25;;;1.70;;
55655;SDS011;41530;52.382;5.270;2024-02-21T06:09:24;4.35;;;1.73;;
55655;SDS011;41530;52.382;5.270;2024-02-21T06:11:51;7.30;;;1.55;;
55655;SDS011;41530;52.382;5.270;2024-02-21T06:14:18;3.40;;;1.63;;
55655;SDS011;41530;52.382;5.270;2024-02-21T06:16:45;5.07;;;1.90;;
55655;SDS011;41530;52.382;5.270;2024-02-21T06:19:12;4.50;;;1.50;;
55655;SDS011;41530;52.382;5.270;2024-02-21T06:21:39;5.10;;;1.45;;
55655;SDS011;41530;52.382;5.270;2024-02-21T06:24:06;5.65;;;1.80;;
55655;SDS011;41530;52.382;5.270;2024-02-21T06:26:33;6.90;;;1.70;;
55655;SDS011;41530;52.382;5.270;2024-02-21T06:28:59;5.75;;;1.50;;
55655;SDS011;41530;52.382;5.270;2024-02-21T06:31:27;6.32;;;1.52;;
55655;SDS011;41530;52.382;5.270;2024-02-21T06:33:54;5.00;;;1.55;;
55655;SDS011;41530;52.382;5.270;2024-02-21T06:36:21;4.95;;;1.73;;
55655;SDS011;41530;52.382;5.270;2024-02-21T06:38:48;7.32;;;1.60;;
55655;SDS011;41530;52.382;5.270;2024-02-21T06:41:15;3.33;;;1.45;;
55655;SDS011;41530;52.382;5.270;2024-02-21T06:43:43;5.05;;;1.67;;
55655;SDS011;41530;52.382;5.270;2024-02-21T06:46:09;3.25;;;1.23;;
55655;SDS011;41530;52.382;5.270;2024-02-21T06:48:36;4.43;;;1.75;;
55655;SDS011;41530;52.382;5.270;2024-02-21T06:51:03;3.78;;;1.65;;
55655;SDS011;41530;52.382;5.270;2024-02-21T06:53:30;5.80;;;2.00;;
55655;SDS011;41530;52.382;5.270;2024-02-21T06:55:57;3.60;;;1.60;;
55655;SDS011;41530;52.382;5.270;2024-02-21T06:58:24;4.25;;;1.73;;
55655;SDS011;41530;52.382;5.270;2024-02-21T07:00:51;5.07;;;1.90;;
55655;SDS011;41530;52.382;5.270;2024-02-21T07:03:18;5.22;;;1.92;;
55655;SDS011;41530;52.382;5.270;2024-02-21T07:05:44;5.10;;;1.70;;
55655;SDS011;41530;52.382;5.270;2024-02-21T07:08:11;5.93;;;1.60;;
55655;SDS011;41530;52.382;5.270;2024-02-21T07:10:38;8.15;;;2.08;;
55655;SDS011;41530;52.382;5.270;2024-02-21T07:13:04;6.78;;;2.75;;
55655;SDS011;41530;52.382;5.270;2024-02-21T07:15:31;5.53;;;2.00;;
55655;SDS011;41530;52.382;5.270;2024-02-21T07:17:59;6.68;;;2.20;;
55655;SDS011;41530;52.382;5.270;2024-02-21T07:20:26;18.30;;;3.33;;
55655;SDS011;41530;52.382;5.270;2024-02-21T07:22:53;3.22;;;1.70;;
55655;SDS011;41530;52.382;5.270;2024-02-21T07:25:19;6.05;;;2.10;;
55655;SDS011;41530;52.382;5.270;2024-02-21T07:27:46;7.80;;;2.00;;
55655;SDS011;41530;52.382;5.270;2024-02-21T07:30:13;8.75;;;1.98;;
55655;SDS011;41530;52.382;5.270;2024-02-21T07:32:42;3.60;;;2.22;;
55655;SDS011;41530;52.382;5.270;2024-02-21T07:35:09;5.07;;;1.80;;
55655;SDS011;41530;52.382;5.270;2024-02-21T07:37:38;5.30;;;1.80;;
55655;SDS011;41530;52.382;5.270;2024-02-21T07:40:14;4.78;;;1.80;;
55655;SDS011;41530;52.382;5.270;2024-02-21T07:42:42;4.63;;;1.85;;
55655;SDS011;41530;52.382;5.270;2024-02-21T07:45:17;3.17;;;1.50;;
55655;SDS011;41530;52.382;5.270;2024-02-21T07:47:45;6.10;;;1.65;;
55655;SDS011;41530;52.382;5.270;2024-02-21T07:50:12;4.10;;;1.70;;
55655;SDS011;41530;52.382;5.270;2024-02-21T07:52:39;3.65;;;1.90;;
55655;SDS011;41530;52.382;5.270;2024-02-21T07:55:06;5.60;;;2.42;;
55655;SDS011;41530;52.382;5.270;2024-02-21T07:57:32;5.15;;;2.05;;
55655;SDS011;41530;52.382;5.270;2024-02-21T07:59:59;6.80;;;2.00;;
55655;SDS011;41530;52.382;5.270;2024-02-21T08:02:26;6.50;;;2.00;;
55655;SDS011;41530;52.382;5.270;2024-02-21T08:04:52;8.00;;;3.33;;
55655;SDS011;41530;52.382;5.270;2024-02-21T08:07:19;10.82;;;3.65;;
55655;SDS011;41530;52.382;5.270;2024-02-21T08:09:46;10.05;;;4.20;;
55655;SDS011;41530;52.382;5.270;2024-02-21T08:12:12;8.05;;;4.00;;
55655;SDS011;41530;52.382;5.270;2024-02-21T08:14:39;9.02;;;4.55;;
55655;SDS011;41530;52.382;5.270;2024-02-21T08:17:05;10.45;;;4.72;;
55655;SDS011;41530;52.382;5.270;2024-02-21T08:19:32;10.13;;;3.97;;
55655;SDS011;41530;52.382;5.270;2024-02-21T08:21:59;7.70;;;4.28;;
55655;SDS011;41530;52.382;5.270;2024-02-21T08:24:26;15.57;;;4.32;;
55655;SDS011;41530;52.382;5.270;2024-02-21T08:26:53;7.90;;;3.80;;
55655;SDS011;41530;52.382;5.270;2024-02-21T08:29:20;9.38;;;4.22;;
55655;SDS011;41530;52.382;5.270;2024-02-21T08:31:46;16.58;;;4.90;;
55655;SDS011;41530;52.382;5.270;2024-02-21T08:34:13;10.52;;;4.25;;
55655;SDS011;41530;52.382;5.270;2024-02-21T08:36:40;10.05;;;4.18;;
55655;SDS011;41530;52.382;5.270;2024-02-21T08:39:07;10.50;;;4.60;;
55655;SDS011;41530;52.382;5.270;2024-02-21T08:41:36;11.88;;;4.00;;
55655;SDS011;41530;52.382;5.270;2024-02-21T08:44:25;9.20;;;3.70;;
55655;SDS011;41530;52.382;5.270;2024-02-21T08:46:54;11.15;;;4.13;;
55655;SDS011;41530;52.382;5.270;2024-02-21T08:49:21;11.63;;;5.03;;
55655;SDS011;41530;52.382;5.270;2024-02-21T08:51:48;10.57;;;4.07;;
55655;SDS011;41530;52.382;5.270;2024-02-21T08:54:14;12.13;;;4.25;;
55655;SDS011;41530;52.382;5.270;2024-02-21T08:56:41;9.90;;;3.90;;
55655;SDS011;41530;52.382;5.270;2024-02-21T08:59:08;14.20;;;4.30;;
55655;SDS011;41530;52.382;5.270;2024-02-21T09:01:35;10.55;;;4.63;;
55655;SDS011;41530;52.382;5.270;2024-02-21T09:04:02;9.38;;;3.53;;
55655;SDS011;41530;52.382;5.270;2024-02-21T09:06:29;9.68;;;3.75;;
55655;SDS011;41530;52.382;5.270;2024-02-21T09:08:57;12.00;;;3.88;;
55655;SDS011;41530;52.382;5.270;2024-02-21T09:11:24;13.77;;;4.35;;
55655;SDS011;41530;52.382;5.270;2024-02-21T09:13:51;9.63;;;3.42;;
55655;SDS011;41530;52.382;5.270;2024-02-21T09:16:18;8.82;;;3.70;;
55655;SDS011;41530;52.382;5.270;2024-02-21T09:18:44;11.90;;;3.95;;
55655;SDS011;41530;52.382;5.270;2024-02-21T09:21:12;10.13;;;3.90;;
55655;SDS011;41530;52.382;5.270;2024-02-21T09:23:39;10.50;;;3.85;;
55655;SDS011;41530;52.382;5.270;2024-02-21T09:26:06;11.20;;;4.22;;
55655;SDS011;41530;52.382;5.270;2024-02-21T09:28:33;11.30;;;3.38;;
55655;SDS011;41530;52.382;5.270;2024-02-21T09:31:01;10.35;;;3.55;;
55655;SDS011;41530;52.382;5.270;2024-02-21T09:33:28;11.60;;;3.65;;
55655;SDS011;41530;52.382;5.270;2024-02-21T09:36:00;9.45;;;3.42;;
55655;SDS011;41530;52.382;5.270;2024-02-21T09:38:27;14.25;;;3.65;;
55655;SDS011;41530;52.382;5.270;2024-02-21T09:43:52;6.90;;;2.67;;
55655;SDS011;41530;52.382;5.270;2024-02-21T09:46:23;12.93;;;4.60;;
55655;SDS011;41530;52.382;5.270;2024-02-21T09:51:49;8.63;;;2.88;;
55655;SDS011;41530;52.382;5.270;2024-02-21T09:54:18;9.88;;;3.40;;
55655;SDS011;41530;52.382;5.270;2024-02-21T09:56:47;12.23;;;3.70;;
55655;SDS011;41530;52.382;5.270;2024-02-21T09:59:16;10.70;;;3.22;;
55655;SDS011;41530;52.382;5.270;2024-02-21T10:01:43;9.10;;;3.17;;
55655;SDS011;41530;52.382;5.270;2024-02-21T10:04:13;10.30;;;3.10;;
55655;SDS011;41530;52.382;5.270;2024-02-21T10:06:41;10.50;;;2.97;;
55655;SDS011;41530;52.382;5.270;2024-02-21T10:09:08;10.50;;;3.35;;
55655;SDS011;41530;52.382;5.270;2024-02-21T10:11:35;10.60;;;3.45;;
55655;SDS011;41530;52.382;5.270;2024-02-21T10:14:03;9.90;;;3.53;;
55655;SDS011;41530;52.382;5.270;2024-02-21T10:16:32;8.70;;;3.38;;
55655;SDS011;41530;52.382;5.270;2024-02-21T10:19:00;6.90;;;3.00;;
55655;SDS011;41530;52.382;5.270;2024-02-21T10:21:26;11.05;;;3.50;;
55655;SDS011;41530;52.382;5.270;2024-02-21T10:23:53;7.32;;;3.05;;
55655;SDS011;41530;52.382;5.270;2024-02-21T10:26:20;12.90;;;3.30;;
55655;SDS011;41530;52.382;5.270;2024-02-21T10:28:47;6.10;;;3.15;;
55655;SDS011;41530;52.382;5.270;2024-02-21T10:31:21;6.72;;;2.97;;
55655;SDS011;41530;52.382;5.270;2024-02-21T10:36:22;5.80;;;2.88;;
55655;SDS011;41530;52.382;5.270;2024-02-21T10:38:51;6.57;;;3.10;;
55655;SDS011;41530;52.382;5.270;2024-02-21T10:41:19;11.48;;;3.05;;
55655;SDS011;41530;52.382;5.270;2024-02-21T10:43:51;5.75;;;3.15;;
55655;SDS011;41530;52.382;5.270;2024-02-21T10:46:21;7.45;;;2.92;;
55655;SDS011;41530;52.382;5.270;2024-02-21T10:49:01;6.97;;;2.90;;
55655;SDS011;41530;52.382;5.270;2024-02-21T10:51:37;6.43;;;2.60;;
55655;SDS011;41530;52.382;5.270;2024-02-21T10:57:02;5.95;;;2.67;;
55655;SDS011;41530;52.382;5.270;2024-02-21T10:59:30;6.80;;;2.80;;
55655;SDS011;41530;52.382;5.270;2024-02-21T11:01:58;6.10;;;2.72;;
55655;SDS011;41530;52.382;5.270;2024-02-21T11:04:26;6.57;;;2.97;;
55655;SDS011;41530;52.382;5.270;2024-02-21T11:06:57;5.47;;;2.97;;
55655;SDS011;41530;52.382;5.270;2024-02-21T11:09:30;4.93;;;2.40;;
55655;SDS011;41530;52.382;5.270;2024-02-21T11:12:02;5.25;;;2.38;;
55655;SDS011;41530;52.382;5.270;2024-02-21T11:14:30;3.22;;;2.28;;
55655;SDS011;41530;52.382;5.270;2024-02-21T11:17:15;8.27;;;2.58;;
55655;SDS011;41530;52.382;5.270;2024-02-21T11:19:47;4.18;;;2.42;;
55655;SDS011;41530;52.382;5.270;2024-02-21T11:22:15;6.68;;;2.60;;
55655;SDS011;41530;52.382;5.270;2024-02-21T11:24:46;5.35;;;2.30;;
55655;SDS011;41530;52.382;5.270;2024-02-21T11:27:14;3.47;;;2.13;;
55655;SDS011;41530;52.382;5.270;2024-02-21T11:29:42;4.15;;;1.95;;
55655;SDS011;41530;52.382;5.270;2024-02-21T11:32:16;4.53;;;2.58;;
55655;SDS011;41530;52.382;5.270;2024-02-21T11:34:57;4.55;;;1.75;;
55655;SDS011;41530;52.382;5.270;2024-02-21T11:37:29;6.38;;;2.30;;
55655;SDS011;41530;52.382;5.270;2024-02-21T11:39:59;4.57;;;1.95;;
55655;SDS011;41530;52.382;5.270;2024-02-21T11:42:26;4.75;;;2.20;;
55655;SDS011;41530;52.382;5.270;2024-02-21T11:44:55;5.25;;;2.10;;
55655;SDS011;41530;52.382;5.270;2024-02-21T11:47:23;3.88;;;2.08;;
55655;SDS011;41530;52.382;5.270;2024-02-21T11:49:51;4.95;;;2.20;;
55655;SDS011;41530;52.382;5.270;2024-02-21T11:52:21;5.18;;;2.33;;
55655;SDS011;41530;52.382;5.270;2024-02-21T11:54:53;3.80;;;2.03;;
55655;SDS011;41530;52.382;5.270;2024-02-21T11:57:23;3.50;;;1.70;;
55655;SDS011;41530;52.382;5.270;2024-02-21T11:59:50;4.18;;;1.77;;
55655;SDS011;41530;52.382;5.270;2024-02-21T12:02:24;3.67;;;2.10;;
55655;SDS011;41530;52.382;5.270;2024-02-21T12:04:52;3.50;;;1.98;;
55655;SDS011;41530;52.382;5.270;2024-02-21T12:07:21;2.38;;;2.00;;
55655;SDS011;41530;52.382;5.270;2024-02-21T12:09:50;4.72;;;1.63;;
55655;SDS011;41530;52.382;5.270;2024-02-21T12:12:19;5.53;;;1.92;;
55655;SDS011;41530;52.382;5.270;2024-02-21T12:14:46;7.68;;;1.85;;
55655;SDS011;41530;52.382;5.270;2024-02-21T12:17:20;2.83;;;1.48;;
55655;SDS011;41530;52.382;5.270;2024-02-21T12:19:47;2.60;;;1.73;;
55655;SDS011;41530;52.382;5.270;2024-02-21T12:22:18;4.88;;;1.70;;
55655;SDS011;41530;52.382;5.270;2024-02-21T12:24:46;4.28;;;1.88;;
55655;SDS011;41530;52.382;5.270;2024-02-21T12:27:14;4.03;;;1.83;;
55655;SDS011;41530;52.382;5.270;2024-02-21T12:29:41;4.10;;;1.42;;
55655;SDS011;41530;52.382;5.270;2024-02-21T12:32:08;3.72;;;1.75;;
55655;SDS011;41530;52.382;5.270;2024-02-21T12:34:35;3.00;;;1.60;;
55655;SDS011;41530;52.382;5.270;2024-02-21T12:37:18;3.17;;;1.92;;
55655;SDS011;41530;52.382;5.270;2024-02-21T12:39:47;3.25;;;1.50;;
55655;SDS011;41530;52.382;5.270;2024-02-21T12:42:13;4.90;;;1.90;;
55655;SDS011;41530;52.382;5.270;2024-02-21T12:44:40;4.25;;;1.40;;
55655;SDS011;41530;52.382;5.270;2024-02-21T12:47:08;3.45;;;1.70;;
55655;SDS011;41530;52.382;5.270;2024-02-21T12:49:35;2.90;;;1.50;;
55655;SDS011;41530;52.382;5.270;2024-02-21T12:52:10;2.72;;;1.67;;
55655;SDS011;41530;52.382;5.270;2024-02-21T12:54:37;3.20;;;1.67;;
55655;SDS011;41530;52.382;5.270;2024-02-21T12:57:04;3.53;;;1.55;;
55655;SDS011;41530;52.382;5.270;2024-02-21T12:59:31;2.03;;;1.60;;
55655;SDS011;41530;52.382;5.270;2024-02-21T13:01:58;1.63;;;1.33;;
55655;SDS011;41530;52.382;5.270;2024-02-21T13:04:25;4.53;;;1.83;;
55655;SDS011;41530;52.382;5.270;2024-02-21T13:06:51;2.70;;;1.45;;
55655;SDS011;41530;52.382;5.270;2024-02-21T13:09:18;3.28;;;1.58;;
55655;SDS011;41530;52.382;5.270;2024-02-21T13:11:45;2.95;;;1.75;;
55655;SDS011;41530;52.382;5.270;2024-02-21T13:14:12;3.08;;;1.52;;
55655;SDS011;41530;52.382;5.270;2024-02-21T13:16:39;2.85;;;1.38;;
55655;SDS011;41530;52.382;5.270;2024-02-21T13:19:06;2.28;;;1.40;;
55655;SDS011;41530;52.382;5.270;2024-02-21T13:21:37;2.33;;;1.35;;
55655;SDS011;41530;52.382;5.270;2024-02-21T13:24:04;3.63;;;1.40;;
55655;SDS011;41530;52.382;5.270;2024-02-21T13:26:31;3.15;;;1.60;;
55655;SDS011;41530;52.382;5.270;2024-02-21T13:28:57;2.08;;;1.55;;
55655;SDS011;41530;52.382;5.270;2024-02-21T13:31:24;2.15;;;1.45;;
55655;SDS011;41530;52.382;5.270;2024-02-21T13:33:52;2.22;;;1.50;;
55655;SDS011;41530;52.382;5.270;2024-02-21T13:36:19;2.83;;;1.23;;
55655;SDS011;41530;52.382;5.270;2024-02-21T13:38:45;3.05;;;1.60;;
55655;SDS011;41530;52.382;5.270;2024-02-21T13:41:13;2.17;;;1.50;;
55655;SDS011;41530;52.382;5.270;2024-02-21T13:43:40;2.20;;;1.38;;
55655;SDS011;41530;52.382;5.270;2024-02-21T13:46:07;2.67;;;1.50;;
55655;SDS011;41530;52.382;5.270;2024-02-21T13:48:36;4.05;;;1.88;;
55655;SDS011;41530;52.382;5.270;2024-02-21T13:51:03;4.63;;;1.50;;
55655;SDS011;41530;52.382;5.270;2024-02-21T13:53:30;2.08;;;1.40;;
55655;SDS011;41530;52.382;5.270;2024-02-21T13:55:57;3.10;;;1.55;;
55655;SDS011;41530;52.382;5.270;2024-02-21T13:58:24;2.88;;;1.45;;
55655;SDS011;41530;52.382;5.270;2024-02-21T14:00:52;2.33;;;1.45;;
55655;SDS011;41530;52.382;5.270;2024-02-21T14:03:22;2.33;;;1.30;;
55655;SDS011;41530;52.382;5.270;2024-02-21T14:05:48;1.95;;;1.50;;
55655;SDS011;41530;52.382;5.270;2024-02-21T14:08:15;1.75;;;1.25;;
55655;SDS011;41530;52.382;5.270;2024-02-21T14:10:42;2.33;;;1.48;;
55655;SDS011;41530;52.382;5.270;2024-02-21T14:13:09;2.25;;;1.23;;
55655;SDS011;41530;52.382;5.270;2024-02-21T14:15:36;2.33;;;1.50;;
55655;SDS011;41530;52.382;5.270;2024-02-21T14:18:04;2.95;;;1.58;;
55655;SDS011;41530;52.382;5.270;2024-02-21T14:20:35;2.45;;;1.30;;
55655;SDS011;41530;52.382;5.270;2024-02-21T14:23:02;2.63;;;1.40;;
55655;SDS011;41530;52.382;5.270;2024-02-21T14:25:29;2.97;;;1.45;;
55655;SDS011;41530;52.382;5.270;2024-02-21T14:27:56;1.65;;;1.20;;
55655;SDS011;41530;52.382;5.270;2024-02-21T14:30:23;3.20;;;1.50;;
55655;SDS011;41530;52.382;5.270;2024-02-21T14:32:49;2.50;;;1.20;;
55655;SDS011;41530;52.382;5.270;2024-02-21T14:35:17;1.85;;;1.30;;
55655;SDS011;41530;52.382;5.270;2024-02-21T14:37:44;3.75;;;1.65;;
55655;SDS011;41530;52.382;5.270;2024-02-21T14:40:12;2.92;;;1.33;;
55655;SDS011;41530;52.382;5.270;2024-02-21T14:42:38;2.63;;;1.40;;
55655;SDS011;41530;52.382;5.270;2024-02-21T14:45:05;7.72;;;1.75;;
55655;SDS011;41530;52.382;5.270;2024-02-21T14:47:33;1.70;;;1.27;;
55655;SDS011;41530;52.382;5.270;2024-02-21T14:50:03;4.10;;;1.55;;
55655;SDS011;41530;52.382;5.270;2024-02-21T14:52:33;4.18;;;1.52;;
55655;SDS011;41530;52.382;5.270;2024-02-21T14:55:03;3.20;;;1.63;;
55655;SDS011;41530;52.382;5.270;2024-02-21T14:57:31;2.65;;;1.27;;